Terminal Aerodrome Forecast
Issued by NWS

Home | Current Version | Previous Version | Text Only | Print | Product List | Glossary On
Versions: 1 2 3 4 5 6 7 8 9 10 11 12
865
FTUS41 KBTV 212320
TAFRUT
TAF
KRUT 212320Z 2200/2224 15007KT P6SM OVC150
     FM220300 16006KT P6SM VCSH OVC090
     FM220700 17004KT P6SM OVC060=

USA.gov is the U.S. government's official web portal to all federal, state and local government web resources and services.